sensor_id;sensor_type;location;lat;lon;timestamp;P1;durP1;ratioP1;P2;durP2;ratioP2
76103;SDS011;64831;44.870;37.336;2023-05-21T00:01:54;16.60;;;8.05;;
76103;SDS011;64831;44.870;37.336;2023-05-21T00:04:20;14.05;;;7.63;;
76103;SDS011;64831;44.870;37.336;2023-05-21T00:06:45;17.58;;;7.47;;
76103;SDS011;64831;44.870;37.336;2023-05-21T00:09:11;18.50;;;8.18;;
76103;SDS011;64831;44.870;37.336;2023-05-21T00:11:37;16.10;;;8.27;;
76103;SDS011;64831;44.870;37.336;2023-05-21T00:14:03;15.75;;;8.40;;
76103;SDS011;64831;44.870;37.336;2023-05-21T00:16:29;21.00;;;8.95;;
76103;SDS011;64831;44.870;37.336;2023-05-21T00:18:55;15.93;;;7.82;;
76103;SDS011;64831;44.870;37.336;2023-05-21T00:21:22;15.02;;;8.00;;
76103;SDS011;64831;44.870;37.336;2023-05-21T00:23:50;13.38;;;7.45;;
76103;SDS011;64831;44.870;37.336;2023-05-21T00:26:20;14.00;;;7.70;;
76103;SDS011;64831;44.870;37.336;2023-05-21T00:28:51;13.23;;;6.82;;
76103;SDS011;64831;44.870;37.336;2023-05-21T00:31:17;20.13;;;8.00;;
76103;SDS011;64831;44.870;37.336;2023-05-21T00:33:43;16.08;;;7.40;;
76103;SDS011;64831;44.870;37.336;2023-05-21T00:36:09;18.50;;;8.30;;
76103;SDS011;64831;44.870;37.336;2023-05-21T00:38:41;21.77;;;8.10;;
76103;SDS011;64831;44.870;37.336;2023-05-21T00:41:08;16.67;;;8.40;;
76103;SDS011;64831;44.870;37.336;2023-05-21T00:43:35;15.20;;;7.50;;
76103;SDS011;64831;44.870;37.336;2023-05-21T00:46:08;13.82;;;7.82;;
76103;SDS011;64831;44.870;37.336;2023-05-21T00:48:36;16.52;;;8.35;;
76103;SDS011;64831;44.870;37.336;2023-05-21T00:51:04;15.68;;;7.95;;
76103;SDS011;64831;44.870;37.336;2023-05-21T00:53:31;17.40;;;8.55;;
76103;SDS011;64831;44.870;37.336;2023-05-21T00:55:59;15.05;;;8.10;;
76103;SDS011;64831;44.870;37.336;2023-05-21T00:58:26;18.58;;;9.07;;
76103;SDS011;64831;44.870;37.336;2023-05-21T01:00:52;15.60;;;8.45;;
76103;SDS011;64831;44.870;37.336;2023-05-21T01:03:23;17.73;;;8.55;;
76103;SDS011;64831;44.870;37.336;2023-05-21T01:05:50;18.80;;;8.82;;
76103;SDS011;64831;44.870;37.336;2023-05-21T01:08:18;15.55;;;7.80;;
76103;SDS011;64831;44.870;37.336;2023-05-21T01:10:46;18.42;;;8.40;;
76103;SDS011;64831;44.870;37.336;2023-05-21T01:13:13;16.38;;;8.23;;
76103;SDS011;64831;44.870;37.336;2023-05-21T01:15:41;14.70;;;8.27;;
76103;SDS011;64831;44.870;37.336;2023-05-21T01:18:10;16.83;;;8.98;;
76103;SDS011;64831;44.870;37.336;2023-05-21T01:20:38;19.17;;;9.13;;
76103;SDS011;64831;44.870;37.336;2023-05-21T01:23:06;18.40;;;8.98;;
76103;SDS011;64831;44.870;37.336;2023-05-21T01:25:33;19.00;;;9.05;;
76103;SDS011;64831;44.870;37.336;2023-05-21T01:27:59;15.73;;;8.73;;
76103;SDS011;64831;44.870;37.336;2023-05-21T01:30:26;15.68;;;8.43;;
76103;SDS011;64831;44.870;37.336;2023-05-21T01:35:26;22.52;;;9.50;;
76103;SDS011;64831;44.870;37.336;2023-05-21T01:38:28;18.35;;;9.02;;
76103;SDS011;64831;44.870;37.336;2023-05-21T01:41:02;19.58;;;8.90;;
76103;SDS011;64831;44.870;37.336;2023-05-21T01:43:32;17.67;;;8.57;;
76103;SDS011;64831;44.870;37.336;2023-05-21T01:45:59;15.32;;;8.15;;
76103;SDS011;64831;44.870;37.336;2023-05-21T01:48:27;15.80;;;8.75;;
76103;SDS011;64831;44.870;37.336;2023-05-21T01:50:55;17.80;;;8.85;;
76103;SDS011;64831;44.870;37.336;2023-05-21T01:53:22;19.83;;;9.82;;
76103;SDS011;64831;44.870;37.336;2023-05-21T01:55:49;22.60;;;9.65;;
76103;SDS011;64831;44.870;37.336;2023-05-21T01:58:15;18.45;;;9.27;;
76103;SDS011;64831;44.870;37.336;2023-05-21T02:00:41;19.25;;;9.20;;
76103;SDS011;64831;44.870;37.336;2023-05-21T02:03:10;23.00;;;9.05;;
76103;SDS011;64831;44.870;37.336;2023-05-21T02:05:36;19.48;;;8.77;;
76103;SDS011;64831;44.870;37.336;2023-05-21T02:08:02;26.05;;;10.00;;
76103;SDS011;64831;44.870;37.336;2023-05-21T02:10:29;20.65;;;8.90;;
76103;SDS011;64831;44.870;37.336;2023-05-21T02:12:55;21.98;;;8.90;;
76103;SDS011;64831;44.870;37.336;2023-05-21T02:15:21;17.85;;;8.73;;
76103;SDS011;64831;44.870;37.336;2023-05-21T02:17:49;26.70;;;9.38;;
76103;SDS011;64831;44.870;37.336;2023-05-21T02:20:15;15.25;;;8.80;;
76103;SDS011;64831;44.870;37.336;2023-05-21T02:22:43;16.23;;;8.27;;
76103;SDS011;64831;44.870;37.336;2023-05-21T02:25:10;21.15;;;8.85;;
76103;SDS011;64831;44.870;37.336;2023-05-21T02:27:38;17.83;;;9.20;;
76103;SDS011;64831;44.870;37.336;2023-05-21T02:30:09;19.40;;;8.52;;
76103;SDS011;64831;44.870;37.336;2023-05-21T02:32:36;19.02;;;8.77;;
76103;SDS011;64831;44.870;37.336;2023-05-21T02:35:04;19.15;;;8.73;;
76103;SDS011;64831;44.870;37.336;2023-05-21T02:37:30;21.02;;;8.57;;
76103;SDS011;64831;44.870;37.336;2023-05-21T02:39:59;18.63;;;8.48;;
76103;SDS011;64831;44.870;37.336;2023-05-21T02:42:32;19.17;;;8.63;;
76103;SDS011;64831;44.870;37.336;2023-05-21T02:44:59;16.50;;;8.75;;
76103;SDS011;64831;44.870;37.336;2023-05-21T02:47:24;17.10;;;8.02;;
76103;SDS011;64831;44.870;37.336;2023-05-21T02:49:52;15.77;;;8.43;;
76103;SDS011;64831;44.870;37.336;2023-05-21T02:52:18;15.65;;;8.18;;
76103;SDS011;64831;44.870;37.336;2023-05-21T02:54:46;18.67;;;7.80;;
76103;SDS011;64831;44.870;37.336;2023-05-21T02:57:12;13.75;;;8.30;;
76103;SDS011;64831;44.870;37.336;2023-05-21T02:59:38;16.85;;;7.80;;
76103;SDS011;64831;44.870;37.336;2023-05-21T03:02:05;21.23;;;8.60;;
76103;SDS011;64831;44.870;37.336;2023-05-21T03:04:31;18.48;;;7.88;;
76103;SDS011;64831;44.870;37.336;2023-05-21T03:07:03;14.63;;;6.38;;
76103;SDS011;64831;44.870;37.336;2023-05-21T03:09:30;13.68;;;5.72;;
76103;SDS011;64831;44.870;37.336;2023-05-21T03:11:56;14.55;;;5.82;;
76103;SDS011;64831;44.870;37.336;2023-05-21T03:14:22;11.85;;;5.95;;
76103;SDS011;64831;44.870;37.336;2023-05-21T03:16:49;10.13;;;5.18;;
76103;SDS011;64831;44.870;37.336;2023-05-21T03:19:16;9.73;;;4.68;;
76103;SDS011;64831;44.870;37.336;2023-05-21T03:21:43;12.00;;;5.53;;
76103;SDS011;64831;44.870;37.336;2023-05-21T03:24:09;9.38;;;4.47;;
76103;SDS011;64831;44.870;37.336;2023-05-21T03:26:38;11.45;;;5.47;;
76103;SDS011;64831;44.870;37.336;2023-05-21T03:29:04;8.45;;;4.50;;
76103;SDS011;64831;44.870;37.336;2023-05-21T03:31:32;8.35;;;4.93;;
76103;SDS011;64831;44.870;37.336;2023-05-21T03:34:10;9.48;;;4.57;;
76103;SDS011;64831;44.870;37.336;2023-05-21T03:36:36;10.25;;;4.30;;
76103;SDS011;64831;44.870;37.336;2023-05-21T03:39:02;8.82;;;4.63;;
76103;SDS011;64831;44.870;37.336;2023-05-21T03:41:31;8.63;;;4.10;;
76103;SDS011;64831;44.870;37.336;2023-05-21T03:44:07;10.25;;;4.43;;
76103;SDS011;64831;44.870;37.336;2023-05-21T03:46:46;7.00;;;4.00;;
76103;SDS011;64831;44.870;37.336;2023-05-21T03:49:19;13.88;;;4.45;;
76103;SDS011;64831;44.870;37.336;2023-05-21T03:51:48;5.90;;;3.38;;
76103;SDS011;64831;44.870;37.336;2023-05-21T03:54:16;7.38;;;3.58;;
76103;SDS011;64831;44.870;37.336;2023-05-21T03:56:42;8.95;;;4.00;;
76103;SDS011;64831;44.870;37.336;2023-05-21T03:59:08;6.78;;;3.67;;
76103;SDS011;64831;44.870;37.336;2023-05-21T04:01:34;9.80;;;3.60;;
76103;SDS011;64831;44.870;37.336;2023-05-21T04:04:01;5.47;;;3.60;;
76103;SDS011;64831;44.870;37.336;2023-05-21T04:06:27;5.68;;;3.40;;
76103;SDS011;64831;44.870;37.336;2023-05-21T04:08:54;9.52;;;3.15;;
76103;SDS011;64831;44.870;37.336;2023-05-21T04:11:20;4.72;;;2.45;;
76103;SDS011;64831;44.870;37.336;2023-05-21T04:13:46;9.00;;;3.53;;
76103;SDS011;64831;44.870;37.336;2023-05-21T04:16:12;5.80;;;3.20;;
76103;SDS011;64831;44.870;37.336;2023-05-21T04:18:44;7.00;;;3.88;;
76103;SDS011;64831;44.870;37.336;2023-05-21T04:21:13;11.07;;;3.92;;
76103;SDS011;64831;44.870;37.336;2023-05-21T04:23:39;5.78;;;2.70;;
76103;SDS011;64831;44.870;37.336;2023-05-21T04:26:12;8.88;;;3.50;;
76103;SDS011;64831;44.870;37.336;2023-05-21T04:28:41;6.30;;;2.55;;
76103;SDS011;64831;44.870;37.336;2023-05-21T04:31:08;5.88;;;3.33;;
76103;SDS011;64831;44.870;37.336;2023-05-21T04:33:34;6.35;;;3.38;;
76103;SDS011;64831;44.870;37.336;2023-05-21T04:36:00;6.85;;;3.42;;
76103;SDS011;64831;44.870;37.336;2023-05-21T04:38:28;8.95;;;3.75;;
76103;SDS011;64831;44.870;37.336;2023-05-21T04:40:54;7.50;;;3.50;;
76103;SDS011;64831;44.870;37.336;2023-05-21T04:43:23;6.72;;;2.97;;
76103;SDS011;64831;44.870;37.336;2023-05-21T04:45:54;9.43;;;2.90;;
76103;SDS011;64831;44.870;37.336;2023-05-21T04:48:22;3.35;;;2.17;;
76103;SDS011;64831;44.870;37.336;2023-05-21T04:50:49;5.90;;;2.78;;
76103;SDS011;64831;44.870;37.336;2023-05-21T04:53:15;4.90;;;2.60;;
76103;SDS011;64831;44.870;37.336;2023-05-21T04:55:41;8.13;;;2.45;;
76103;SDS011;64831;44.870;37.336;2023-05-21T04:58:07;3.88;;;1.90;;
76103;SDS011;64831;44.870;37.336;2023-05-21T05:00:37;9.75;;;2.83;;
76103;SDS011;64831;44.870;37.336;2023-05-21T05:03:04;6.50;;;2.50;;
76103;SDS011;64831;44.870;37.336;2023-05-21T05:05:30;7.30;;;2.78;;
76103;SDS011;64831;44.870;37.336;2023-05-21T05:07:56;3.90;;;1.98;;
76103;SDS011;64831;44.870;37.336;2023-05-21T05:10:22;6.75;;;2.55;;
76103;SDS011;64831;44.870;37.336;2023-05-21T05:12:50;6.72;;;2.53;;
76103;SDS011;64831;44.870;37.336;2023-05-21T05:15:17;3.70;;;2.25;;
76103;SDS011;64831;44.870;37.336;2023-05-21T05:17:45;5.93;;;2.45;;
76103;SDS011;64831;44.870;37.336;2023-05-21T05:20:15;4.32;;;2.45;;
76103;SDS011;64831;44.870;37.336;2023-05-21T05:22:41;9.73;;;2.67;;
76103;SDS011;64831;44.870;37.336;2023-05-21T05:25:07;3.75;;;2.25;;
76103;SDS011;64831;44.870;37.336;2023-05-21T05:27:33;4.93;;;1.90;;
76103;SDS011;64831;44.870;37.336;2023-05-21T05:29:59;4.28;;;2.60;;
76103;SDS011;64831;44.870;37.336;2023-05-21T05:32:25;4.65;;;2.38;;
76103;SDS011;64831;44.870;37.336;2023-05-21T05:34:51;6.32;;;2.33;;
76103;SDS011;64831;44.870;37.336;2023-05-21T05:37:17;7.30;;;2.60;;
76103;SDS011;64831;44.870;37.336;2023-05-21T05:39:43;3.42;;;2.10;;
76103;SDS011;64831;44.870;37.336;2023-05-21T05:42:09;7.13;;;2.80;;
76103;SDS011;64831;44.870;37.336;2023-05-21T05:44:36;3.80;;;2.25;;
76103;SDS011;64831;44.870;37.336;2023-05-21T05:47:02;5.13;;;2.00;;
76103;SDS011;64831;44.870;37.336;2023-05-21T05:49:33;5.40;;;1.55;;
76103;SDS011;64831;44.870;37.336;2023-05-21T05:51:59;4.07;;;1.98;;
76103;SDS011;64831;44.870;37.336;2023-05-21T05:54:25;3.33;;;2.25;;
76103;SDS011;64831;44.870;37.336;2023-05-21T05:56:51;3.13;;;1.77;;
76103;SDS011;64831;44.870;37.336;2023-05-21T05:59:17;6.88;;;2.47;;
76103;SDS011;64831;44.870;37.336;2023-05-21T06:01:46;3.90;;;2.20;;
76103;SDS011;64831;44.870;37.336;2023-05-21T06:04:12;3.72;;;2.08;;
76103;SDS011;64831;44.870;37.336;2023-05-21T06:06:39;7.28;;;2.47;;
76103;SDS011;64831;44.870;37.336;2023-05-21T06:09:05;4.32;;;1.48;;
76103;SDS011;64831;44.870;37.336;2023-05-21T06:11:31;4.90;;;1.95;;
76103;SDS011;64831;44.870;37.336;2023-05-21T06:13:57;4.00;;;1.95;;
76103;SDS011;64831;44.870;37.336;2023-05-21T06:16:25;3.20;;;1.90;;
76103;SDS011;64831;44.870;37.336;2023-05-21T06:18:52;4.90;;;1.70;;
76103;SDS011;64831;44.870;37.336;2023-05-21T06:21:18;6.70;;;1.80;;
76103;SDS011;64831;44.870;37.336;2023-05-21T06:23:44;6.07;;;1.73;;
76103;SDS011;64831;44.870;37.336;2023-05-21T06:26:10;4.88;;;2.25;;
76103;SDS011;64831;44.870;37.336;2023-05-21T06:28:36;9.35;;;2.38;;
76103;SDS011;64831;44.870;37.336;2023-05-21T06:31:03;6.20;;;2.10;;
76103;SDS011;64831;44.870;37.336;2023-05-21T06:33:31;4.93;;;2.42;;
76103;SDS011;64831;44.870;37.336;2023-05-21T06:35:57;5.97;;;2.30;;
76103;SDS011;64831;44.870;37.336;2023-05-21T06:38:24;3.63;;;2.00;;
76103;SDS011;64831;44.870;37.336;2023-05-21T06:40:49;2.80;;;1.58;;
76103;SDS011;64831;44.870;37.336;2023-05-21T06:43:30;4.75;;;2.13;;
76103;SDS011;64831;44.870;37.336;2023-05-21T06:46:28;5.60;;;2.22;;
76103;SDS011;64831;44.870;37.336;2023-05-21T06:48:54;2.67;;;1.63;;
76103;SDS011;64831;44.870;37.336;2023-05-21T06:51:20;6.15;;;2.20;;
76103;SDS011;64831;44.870;37.336;2023-05-21T06:53:47;2.97;;;1.75;;
76103;SDS011;64831;44.870;37.336;2023-05-21T06:56:13;2.25;;;1.58;;
76103;SDS011;64831;44.870;37.336;2023-05-21T06:58:41;4.18;;;1.70;;
76103;SDS011;64831;44.870;37.336;2023-05-21T07:01:07;3.42;;;2.00;;
76103;SDS011;64831;44.870;37.336;2023-05-21T07:03:34;2.47;;;1.55;;
76103;SDS011;64831;44.870;37.336;2023-05-21T07:06:00;5.90;;;1.90;;
76103;SDS011;64831;44.870;37.336;2023-05-21T07:08:26;2.60;;;1.70;;
76103;SDS011;64831;44.870;37.336;2023-05-21T07:10:52;2.63;;;1.58;;
76103;SDS011;64831;44.870;37.336;2023-05-21T07:13:20;5.15;;;2.03;;
76103;SDS011;64831;44.870;37.336;2023-05-21T07:15:46;2.15;;;1.70;;
76103;SDS011;64831;44.870;37.336;2023-05-21T07:18:12;2.85;;;1.63;;
76103;SDS011;64831;44.870;37.336;2023-05-21T07:20:38;4.82;;;2.10;;
76103;SDS011;64831;44.870;37.336;2023-05-21T07:23:06;2.60;;;1.67;;
76103;SDS011;64831;44.870;37.336;2023-05-21T07:25:32;1.95;;;1.40;;
76103;SDS011;64831;44.870;37.336;2023-05-21T07:27:58;2.60;;;1.63;;
76103;SDS011;64831;44.870;37.336;2023-05-21T07:30:24;5.57;;;1.42;;
76103;SDS011;64831;44.870;37.336;2023-05-21T07:32:50;1.98;;;1.30;;
76103;SDS011;64831;44.870;37.336;2023-05-21T07:35:17;2.88;;;1.90;;
76103;SDS011;64831;44.870;37.336;2023-05-21T07:37:44;2.75;;;1.60;;
76103;SDS011;64831;44.870;37.336;2023-05-21T07:40:12;2.53;;;1.27;;
76103;SDS011;64831;44.870;37.336;2023-05-21T07:42:40;5.15;;;1.80;;
76103;SDS011;64831;44.870;37.336;2023-05-21T07:45:06;2.92;;;1.83;;
76103;SDS011;64831;44.870;37.336;2023-05-21T07:47:38;3.72;;;1.70;;
76103;SDS011;64831;44.870;37.336;2023-05-21T07:50:04;2.53;;;1.70;;
76103;SDS011;64831;44.870;37.336;2023-05-21T07:52:31;3.28;;;1.67;;
76103;SDS011;64831;44.870;37.336;2023-05-21T07:54:59;2.92;;;1.83;;
76103;SDS011;64831;44.870;37.336;2023-05-21T07:57:27;3.65;;;1.52;;
76103;SDS011;64831;44.870;37.336;2023-05-21T07:59:57;2.88;;;1.88;;
76103;SDS011;64831;44.870;37.336;2023-05-21T08:02:24;2.58;;;1.50;;
76103;SDS011;64831;44.870;37.336;2023-05-21T08:04:51;2.70;;;1.73;;
76103;SDS011;64831;44.870;37.336;2023-05-21T08:07:19;5.10;;;2.00;;
76103;SDS011;64831;44.870;37.336;2023-05-21T08:09:46;3.92;;;2.20;;
76103;SDS011;64831;44.870;37.336;2023-05-21T08:12:12;3.25;;;1.92;;
76103;SDS011;64831;44.870;37.336;2023-05-21T08:14:40;3.22;;;1.80;;
76103;SDS011;64831;44.870;37.336;2023-05-21T08:17:08;2.30;;;1.30;;
76103;SDS011;64831;44.870;37.336;2023-05-21T08:19:37;1.80;;;1.42;;
76103;SDS011;64831;44.870;37.336;2023-05-21T08:22:04;3.28;;;1.75;;
76103;SDS011;64831;44.870;37.336;2023-05-21T08:24:35;3.05;;;2.15;;
76103;SDS011;64831;44.870;37.336;2023-05-21T08:27:01;4.18;;;1.75;;
76103;SDS011;64831;44.870;37.336;2023-05-21T08:29:29;1.38;;;1.20;;
76103;SDS011;64831;44.870;37.336;2023-05-21T08:31:58;5.72;;;1.83;;
76103;SDS011;64831;44.870;37.336;2023-05-21T08:34:24;4.65;;;1.83;;
76103;SDS011;64831;44.870;37.336;2023-05-21T08:37:07;2.63;;;1.67;;
76103;SDS011;64831;44.870;37.336;2023-05-21T08:39:53;3.10;;;1.75;;
76103;SDS011;64831;44.870;37.336;2023-05-21T08:45:24;2.38;;;1.58;;
76103;SDS011;64831;44.870;37.336;2023-05-21T08:47:55;3.17;;;1.58;;
76103;SDS011;64831;44.870;37.336;2023-05-21T08:50:25;7.90;;;2.15;;
76103;SDS011;64831;44.870;37.336;2023-05-21T08:55:20;4.45;;;2.30;;
76103;SDS011;64831;44.870;37.336;2023-05-21T08:57:47;3.78;;;2.00;;
76103;SDS011;64831;44.870;37.336;2023-05-21T09:00:16;2.92;;;1.30;;
76103;SDS011;64831;44.870;37.336;2023-05-21T09:02:46;3.30;;;1.98;;
76103;SDS011;64831;44.870;37.336;2023-05-21T09:05:13;4.03;;;1.67;;
76103;SDS011;64831;44.870;37.336;2023-05-21T09:07:49;4.30;;;2.47;;
76103;SDS011;64831;44.870;37.336;2023-05-21T09:10:51;1.30;;;1.20;;
76103;SDS011;64831;44.870;37.336;2023-05-21T09:13:20;4.05;;;1.92;;
76103;SDS011;64831;44.870;37.336;2023-05-21T09:15:48;3.28;;;2.08;;
76103;SDS011;64831;44.870;37.336;2023-05-21T09:18:16;4.75;;;2.50;;
76103;SDS011;64831;44.870;37.336;2023-05-21T09:20:52;10.73;;;2.67;;
76103;SDS011;64831;44.870;37.336;2023-05-21T09:23:21;2.47;;;1.67;;
76103;SDS011;64831;44.870;37.336;2023-05-21T09:25:48;5.70;;;2.67;;
76103;SDS011;64831;44.870;37.336;2023-05-21T09:28:23;2.63;;;1.90;;
76103;SDS011;64831;44.870;37.336;2023-05-21T09:30:52;4.65;;;2.20;;
76103;SDS011;64831;44.870;37.336;2023-05-21T09:33:25;2.72;;;2.05;;
76103;SDS011;64831;44.870;37.336;2023-05-21T09:35:51;2.88;;;2.00;;
76103;SDS011;64831;44.870;37.336;2023-05-21T09:38:20;3.03;;;2.00;;
76103;SDS011;64831;44.870;37.336;2023-05-21T09:40:47;4.88;;;2.05;;
76103;SDS011;64831;44.870;37.336;2023-05-21T09:43:15;2.35;;;1.80;;
76103;SDS011;64831;44.870;37.336;2023-05-21T09:45:51;6.70;;;2.20;;
76103;SDS011;64831;44.870;37.336;2023-05-21T09:48:38;3.90;;;2.13;;
76103;SDS011;64831;44.870;37.336;2023-05-21T09:51:15;5.22;;;2.30;;
76103;SDS011;64831;44.870;37.336;2023-05-21T09:56:18;3.17;;;1.90;;
76103;SDS011;64831;44.870;37.336;2023-05-21T09:58:47;2.88;;;1.50;;
76103;SDS011;64831;44.870;37.336;2023-05-21T10:01:13;6.60;;;2.63;;
76103;SDS011;64831;44.870;37.336;2023-05-21T10:03:38;3.65;;;2.05;;
76103;SDS011;64831;44.870;37.336;2023-05-21T10:06:06;5.78;;;2.10;;
76103;SDS011;64831;44.870;37.336;2023-05-21T10:08:34;4.80;;;2.35;;
76103;SDS011;64831;44.870;37.336;2023-05-21T10:11:04;4.20;;;2.75;;
76103;SDS011;64831;44.870;37.336;2023-05-21T10:13:31;4.57;;;2.30;;
76103;SDS011;64831;44.870;37.336;2023-05-21T10:16:02;7.47;;;2.47;;
76103;SDS011;64831;44.870;37.336;2023-05-21T10:18:29;4.07;;;2.38;;
76103;SDS011;64831;44.870;37.336;2023-05-21T10:20:57;4.28;;;2.17;;
76103;SDS011;64831;44.870;37.336;2023-05-21T10:23:25;5.47;;;2.30;;
76103;SDS011;64831;44.870;37.336;2023-05-21T10:25:53;5.68;;;2.30;;
76103;SDS011;64831;44.870;37.336;2023-05-21T10:28:20;4.55;;;2.65;;
76103;SDS011;64831;44.870;37.336;2023-05-21T10:31:02;4.93;;;2.42;;
76103;SDS011;64831;44.870;37.336;2023-05-21T10:33:29;5.40;;;2.63;;
76103;SDS011;64831;44.870;37.336;2023-05-21T10:35:57;4.22;;;2.40;;
76103;SDS011;64831;44.870;37.336;2023-05-21T10:38:24;5.43;;;2.00;;
76103;SDS011;64831;44.870;37.336;2023-05-21T10:40:51;6.72;;;1.92;;
76103;SDS011;64831;44.870;37.336;2023-05-21T10:48:51;7.38;;;2.40;;
76103;SDS011;64831;44.870;37.336;2023-05-21T10:51:51;2.90;;;2.30;;
76103;SDS011;64831;44.870;37.336;2023-05-21T11:00:30;3.47;;;2.22;;
76103;SDS011;64831;44.870;37.336;2023-05-21T11:02:57;3.58;;;2.28;;
76103;SDS011;64831;44.870;37.336;2023-05-21T11:08:21;5.57;;;2.72;;
76103;SDS011;64831;44.870;37.336;2023-05-21T11:11:00;6.03;;;3.20;;
76103;SDS011;64831;44.870;37.336;2023-05-21T11:13:27;3.95;;;2.30;;
76103;SDS011;64831;44.870;37.336;2023-05-21T11:26:16;5.55;;;2.90;;
76103;SDS011;64831;44.870;37.336;2023-05-21T11:28:42;3.67;;;2.88;;
76103;SDS011;64831;44.870;37.336;2023-05-21T11:31:24;4.30;;;2.53;;
76103;SDS011;64831;44.870;37.336;2023-05-21T11:39:51;6.95;;;3.60;;
76103;SDS011;64831;44.870;37.336;2023-05-21T11:42:31;5.80;;;2.90;;
76103;SDS011;64831;44.870;37.336;2023-05-21T11:44:58;4.93;;;2.80;;
76103;SDS011;64831;44.870;37.336;2023-05-21T11:47:26;5.53;;;3.33;;
76103;SDS011;64831;44.870;37.336;2023-05-21T11:49:58;5.20;;;2.92;;
76103;SDS011;64831;44.870;37.336;2023-05-21T11:52:27;5.82;;;3.00;;
76103;SDS011;64831;44.870;37.336;2023-05-21T11:54:57;5.25;;;3.33;;
76103;SDS011;64831;44.870;37.336;2023-05-21T11:57:27;8.82;;;4.45;;
76103;SDS011;64831;44.870;37.336;2023-05-21T11:59:56;9.05;;;4.32;;
76103;SDS011;64831;44.870;37.336;2023-05-21T12:02:24;10.45;;;4.15;;
76103;SDS011;64831;44.870;37.336;2023-05-21T12:04:52;5.25;;;3.30;;
76103;SDS011;64831;44.870;37.336;2023-05-21T12:07:18;8.38;;;4.30;;
76103;SDS011;64831;44.870;37.336;2023-05-21T12:09:45;4.38;;;3.10;;
76103;SDS011;64831;44.870;37.336;2023-05-21T12:12:14;8.20;;;3.90;;
76103;SDS011;64831;44.870;37.336;2023-05-21T12:14:45;6.40;;;3.78;;
76103;SDS011;64831;44.870;37.336;2023-05-21T12:17:14;8.07;;;4.13;;
76103;SDS011;64831;44.870;37.336;2023-05-21T12:19:44;6.88;;;4.07;;
76103;SDS011;64831;44.870;37.336;2023-05-21T12:22:11;4.82;;;3.65;;
76103;SDS011;64831;44.870;37.336;2023-05-21T12:24:37;6.28;;;3.13;;
76103;SDS011;64831;44.870;37.336;2023-05-21T12:27:04;16.80;;;4.22;;
76103;SDS011;64831;44.870;37.336;2023-05-21T12:29:41;4.32;;;3.20;;
76103;SDS011;64831;44.870;37.336;2023-05-21T12:32:08;12.00;;;3.80;;
76103;SDS011;64831;44.870;37.336;2023-05-21T12:37:14;6.95;;;3.42;;
76103;SDS011;64831;44.870;37.336;2023-05-21T12:39:45;5.95;;;3.53;;
76103;SDS011;64831;44.870;37.336;2023-05-21T12:42:13;8.13;;;3.33;;
76103;SDS011;64831;44.870;37.336;2023-05-21T12:44:45;7.38;;;3.80;;
76103;SDS011;64831;44.870;37.336;2023-05-21T12:47:12;6.97;;;3.40;;
76103;SDS011;64831;44.870;37.336;2023-05-21T12:49:39;7.53;;;3.97;;
76103;SDS011;64831;44.870;37.336;2023-05-21T12:52:07;5.00;;;3.20;;
76103;SDS011;64831;44.870;37.336;2023-05-21T12:54:35;6.90;;;2.88;;
76103;SDS011;64831;44.870;37.336;2023-05-21T12:57:15;4.60;;;2.50;;
76103;SDS011;64831;44.870;37.336;2023-05-21T12:59:43;9.10;;;3.88;;
76103;SDS011;64831;44.870;37.336;2023-05-21T13:02:13;9.30;;;3.75;;
76103;SDS011;64831;44.870;37.336;2023-05-21T13:04:53;8.83;;;3.20;;
76103;SDS011;64831;44.870;37.336;2023-05-21T13:07:23;6.30;;;3.47;;
76103;SDS011;64831;44.870;37.336;2023-05-21T13:09:51;6.32;;;3.72;;
76103;SDS011;64831;44.870;37.336;2023-05-21T13:12:24;5.00;;;3.20;;
76103;SDS011;64831;44.870;37.336;2023-05-21T13:14:52;5.45;;;2.88;;
76103;SDS011;64831;44.870;37.336;2023-05-21T13:17:20;4.82;;;3.40;;
76103;SDS011;64831;44.870;37.336;2023-05-21T13:20:03;6.43;;;3.67;;
76103;SDS011;64831;44.870;37.336;2023-05-21T13:22:34;9.20;;;3.53;;
76103;SDS011;64831;44.870;37.336;2023-05-21T13:25:03;5.53;;;3.73;;
76103;SDS011;64831;44.870;37.336;2023-05-21T13:27:30;6.82;;;3.15;;
76103;SDS011;64831;44.870;37.336;2023-05-21T13:29:56;6.18;;;3.65;;
76103;SDS011;64831;44.870;37.336;2023-05-21T13:32:22;6.40;;;3.30;;
76103;SDS011;64831;44.870;37.336;2023-05-21T13:34:48;10.70;;;3.88;;
76103;SDS011;64831;44.870;37.336;2023-05-21T13:37:14;6.35;;;3.67;;
76103;SDS011;64831;44.870;37.336;2023-05-21T13:39:40;6.63;;;3.75;;
76103;SDS011;64831;44.870;37.336;2023-05-21T13:42:06;7.57;;;3.35;;
76103;SDS011;64831;44.870;37.336;2023-05-21T13:44:32;4.30;;;3.00;;
76103;SDS011;64831;44.870;37.336;2023-05-21T13:47:00;6.43;;;3.47;;
76103;SDS011;64831;44.870;37.336;2023-05-21T13:49:27;5.93;;;3.28;;
76103;SDS011;64831;44.870;37.336;2023-05-21T13:51:53;7.88;;;3.83;;
76103;SDS011;64831;44.870;37.336;2023-05-21T13:54:19;8.40;;;3.70;;
76103;SDS011;64831;44.870;37.336;2023-05-21T13:56:45;10.05;;;3.90;;
76103;SDS011;64831;44.870;37.336;2023-05-21T13:59:14;7.40;;;3.08;;
76103;SDS011;64831;44.870;37.336;2023-05-21T14:01:40;7.45;;;3.30;;
76103;SDS011;64831;44.870;37.336;2023-05-21T14:04:08;8.68;;;4.00;;
76103;SDS011;64831;44.870;37.336;2023-05-21T14:06:34;8.23;;;4.10;;
76103;SDS011;64831;44.870;37.336;2023-05-21T14:09:00;7.18;;;4.13;;
76103;SDS011;64831;44.870;37.336;2023-05-21T14:11:27;11.77;;;3.58;;
76103;SDS011;64831;44.870;37.336;2023-05-21T14:13:53;10.13;;;4.15;;
76103;SDS011;64831;44.870;37.336;2023-05-21T14:16:19;10.23;;;4.35;;
76103;SDS011;64831;44.870;37.336;2023-05-21T14:18:47;9.77;;;4.03;;
76103;SDS011;64831;44.870;37.336;2023-05-21T14:21:13;7.75;;;3.45;;
76103;SDS011;64831;44.870;37.336;2023-05-21T14:23:41;5.93;;;3.38;;
76103;SDS011;64831;44.870;37.336;2023-05-21T14:26:07;6.95;;;3.42;;
76103;SDS011;64831;44.870;37.336;2023-05-21T14:28:33;8.20;;;4.00;;
76103;SDS011;64831;44.870;37.336;2023-05-21T14:30:59;10.63;;;3.95;;
76103;SDS011;64831;44.870;37.336;2023-05-21T14:33:25;9.77;;;3.65;;
76103;SDS011;64831;44.870;37.336;2023-05-21T14:35:51;8.00;;;3.88;;
76103;SDS011;64831;44.870;37.336;2023-05-21T14:38:17;9.57;;;3.90;;
76103;SDS011;64831;44.870;37.336;2023-05-21T14:40:43;11.27;;;3.40;;
76103;SDS011;64831;44.870;37.336;2023-05-21T14:43:09;11.63;;;4.13;;
76103;SDS011;64831;44.870;37.336;2023-05-21T14:45:35;9.93;;;4.10;;
76103;SDS011;64831;44.870;37.336;2023-05-21T14:48:01;7.30;;;3.60;;
76103;SDS011;64831;44.870;37.336;2023-05-21T14:50:35;6.90;;;3.78;;
76103;SDS011;64831;44.870;37.336;2023-05-21T14:53:05;6.00;;;3.60;;
76103;SDS011;64831;44.870;37.336;2023-05-21T14:55:31;8.68;;;4.10;;
76103;SDS011;64831;44.870;37.336;2023-05-21T14:57:59;8.70;;;4.28;;
76103;SDS011;64831;44.870;37.336;2023-05-21T15:00:26;8.10;;;4.47;;
76103;SDS011;64831;44.870;37.336;2023-05-21T15:02:52;5.95;;;4.28;;
76103;SDS011;64831;44.870;37.336;2023-05-21T15:05:18;7.70;;;4.00;;
76103;SDS011;64831;44.870;37.336;2023-05-21T15:07:44;7.45;;;4.25;;
76103;SDS011;64831;44.870;37.336;2023-05-21T15:10:10;8.15;;;4.00;;
76103;SDS011;64831;44.870;37.336;2023-05-21T15:12:37;4.90;;;3.63;;
76103;SDS011;64831;44.870;37.336;2023-05-21T15:15:04;13.50;;;4.70;;
76103;SDS011;64831;44.870;37.336;2023-05-21T15:17:30;5.68;;;3.25;;
76103;SDS011;64831;44.870;37.336;2023-05-21T15:19:57;9.10;;;4.50;;
76103;SDS011;64831;44.870;37.336;2023-05-21T15:22:27;10.75;;;3.95;;